Time;durP1;ratioP1;P1;durP2;ratioP2;P2;SDS_P1;SDS_P2;PMS_P1;PMS_P2;Temp;Humidity;BMP_temperature;BMP_pressure;BME280_temperature;BME280_humidity;BME280_pressure;Samples;Min_cycle;Max_cycle;Signal;HPM_P1;HPM_P2
2023/04/03 00:01:00;;;;;;;42.55;39.78;;;4.80;99.90;;;;;;4957538;28;20525;-80
2023/04/03 00:03:26;;;;;;;40.83;38.03;;;4.80;99.90;;;;;;4983359;28;20046;-80
2023/04/03 00:05:51;;;;;;;28.00;26.08;;;4.60;44.80;;;;;;4975930;28;20045;-80
2023/04/03 00:08:17;;;;;;;59.40;55.25;;;4.70;1.00;;;;;;4993563;28;20037;-80
2023/04/03 00:10:42;;;;;;;25.02;23.23;;;4.80;1.00;;;;;;4971237;28;20038;-80
2023/04/03 00:13:08;;;;;;;23.55;21.85;;;4.60;99.90;;;;;;4967703;28;20418;-80
2023/04/03 00:15:35;;;;;;;16.65;15.35;;;4.80;99.90;;;;;;4976640;28;20517;-80
2023/04/03 00:18:01;;;;;;;24.33;22.58;;;4.80;99.90;;;;;;4988604;28;20084;-80
2023/04/03 00:20:27;;;;;;;50.13;46.80;;;4.70;91.90;;;;;;4956130;28;20042;-80
2023/04/03 00:22:53;;;;;;;30.77;28.45;;;4.40;1.00;;;;;;4977633;28;20044;-80
2023/04/03 00:25:19;;;;;;;22.50;20.98;;;4.60;1.00;;;;;;4977159;28;20045;-80
2023/04/03 00:27:45;;;;;;;28.42;26.52;;;4.70;1.00;;;;;;4993345;28;20124;-80
2023/04/03 00:30:14;;;;;;;37.67;34.63;;;4.30;1.00;;;;;;4975599;28;20184;-80
2023/04/03 00:32:40;;;;;;;28.50;26.50;;;4.30;1.00;;;;;;4957104;28;20494;-80
2023/04/03 00:35:06;;;;;;;32.08;29.88;;;4.50;95.80;;;;;;4967517;28;20048;-80
2023/04/03 00:37:32;;;;;;;39.05;36.55;;;4.40;99.90;;;;;;4974691;28;20065;-80
2023/04/03 00:39:58;;;;;;;22.58;21.08;;;4.00;99.90;;;;;;4992701;28;20129;-80
2023/04/03 00:42:24;;;;;;;42.28;39.53;;;3.90;99.90;;;;;;4992200;28;20040;-80
2023/04/03 00:44:52;;;;;;;34.60;31.90;;;3.70;99.90;;;;;;4992781;28;20559;-80
2023/04/03 00:47:18;;;;;;;26.55;24.48;;;4.10;1.00;;;;;;4992823;28;20042;-80
2023/04/03 00:49:44;;;;;;;25.25;23.38;;;4.10;1.00;;;;;;4993414;28;20052;-80
2023/04/03 00:52:15;;;;;;;15.73;14.18;;;3.60;64.80;;;;;;4975160;28;20042;-80
2023/04/03 00:54:43;;;;;;;22.08;20.30;;;3.70;99.90;;;;;;4993058;28;20605;-80
2023/04/03 00:57:10;;;;;;;23.25;21.58;;;3.50;99.90;;;;;;4976618;28;20070;-80
2023/04/03 00:59:41;;;;;;;38.35;35.22;;;4.00;1.00;;;;;;4995634;28;20045;-80
2023/04/03 01:02:07;;;;;;;23.15;21.35;;;3.80;1.00;;;;;;4964238;28;20486;-80
2023/04/03 01:04:41;;;;;;;25.17;23.40;;;3.50;99.90;;;;;;4978207;28;20035;-80
2023/04/03 01:07:18;;;;;;;34.67;32.03;;;3.40;99.90;;;;;;4992839;28;20046;-80
2023/04/03 01:09:45;;;;;;;27.20;25.17;;;3.40;1.00;;;;;;4980450;28;20057;-80
2023/04/03 01:12:20;;;;;;;29.00;27.00;;;3.60;99.90;;;;;;4978398;28;20053;-80
2023/04/03 01:14:49;;;;;;;49.40;44.90;;;3.50;99.90;;;;;;4980261;28;20394;-80
2023/04/03 01:17:28;;;;;;;26.17;24.00;;;3.20;1.00;;;;;;4983253;28;20042;-80
2023/04/03 01:20:14;;;;;;;59.72;55.78;;;3.30;99.90;;;;;;4963890;28;20044;-81
2023/04/03 01:23:21;;;;;;;33.50;30.88;;;3.80;1.00;;;;;;4972166;28;20053;-80
2023/04/03 01:25:49;;;;;;;39.90;37.15;;;3.20;75.50;;;;;;4995982;28;20458;-80
2023/04/03 01:28:22;;;;;;;52.53;48.95;;;3.50;99.90;;;;;;4996278;28;20099;-80
2023/04/03 01:31:09;;;;;;;30.80;28.40;;;3.20;99.90;;;;;;4979581;28;20049;-80
2023/04/03 01:33:35;;;;;;;32.20;30.10;;;3.30;1.00;;;;;;4980111;28;20129;-80
2023/04/03 01:36:01;;;;;;;27.75;25.50;;;3.80;11.90;;;;;;4980413;28;20058;-80
2023/04/03 01:38:27;;;;;;;27.40;25.42;;;3.10;71.70;;;;;;4960430;28;20125;-80
2023/04/03 01:40:52;;;;;;;28.08;25.85;;;3.10;99.90;;;;;;4966040;28;20493;-80
2023/04/03 01:43:18;;;;;;;21.20;19.67;;;3.70;99.90;;;;;;4994816;28;20048;-80
2023/04/03 01:45:44;;;;;;;26.38;24.48;;;3.40;99.90;;;;;;4977595;28;20034;-80
2023/04/03 01:48:09;;;;;;;24.45;22.60;;;3.30;99.90;;;;;;4995619;28;20515;-80
2023/04/03 01:50:35;;;;;;;32.20;29.77;;;3.50;99.90;;;;;;4994474;28;20113;-80
2023/04/03 01:53:00;;;;;;;26.80;24.95;;;3.20;99.90;;;;;;4979642;28;20414;-82
2023/04/03 01:55:26;;;;;;;20.75;19.23;;;3.70;99.90;;;;;;4979359;28;20162;-82
2023/04/03 01:57:51;;;;;;;26.42;24.65;;;3.10;99.90;;;;;;4995309;28;20052;-82
2023/04/03 02:00:17;;;;;;;43.75;40.80;;;3.70;99.90;;;;;;4976754;28;20045;-83
2023/04/03 02:02:43;;;;;;;44.65;40.95;;;3.10;99.90;;;;;;4960579;28;20122;-82
2023/04/03 02:05:09;;;;;;;18.15;16.75;;;3.20;99.90;;;;;;4975487;28;20042;-82
2023/04/03 02:07:34;;;;;;;15.10;13.95;;;3.30;99.90;;;;;;4988763;28;20596;-83
2023/04/03 02:10:00;;;;;;;13.45;12.50;;;3.10;99.90;;;;;;4979459;28;20064;-83
2023/04/03 02:12:26;;;;;;;29.25;26.55;;;3.10;99.90;;;;;;4962453;28;20042;-83
2023/04/03 02:14:51;;;;;;;21.27;19.77;;;3.00;99.90;;;;;;4976049;28;20045;-83
2023/04/03 02:17:17;;;;;;;18.77;17.15;;;3.50;99.90;;;;;;4983649;28;20077;-83
2023/04/03 02:19:43;;;;;;;14.93;13.43;;;2.90;98.70;;;;;;4995825;28;20060;-83
2023/04/03 02:22:08;;;;;;;9.52;8.70;;;3.10;79.50;;;;;;4964188;28;20038;-83
2023/04/03 02:24:34;;;;;;;22.73;21.05;;;2.90;40.80;;;;;;4960528;28;20510;-82
2023/04/03 02:26:59;;;;;;;24.73;22.77;;;3.30;13.10;;;;;;4983713;28;20034;-83
2023/04/03 02:29:25;;;;;;;16.73;15.07;;;2.70;1.00;;;;;;4979357;28;20124;-83
2023/04/03 02:31:51;;;;;;;23.67;22.02;;;2.80;1.00;;;;;;4986312;28;20034;-82
2023/04/03 02:34:17;;;;;;;14.95;13.70;;;3.00;1.00;;;;;;4959481;28;20571;-82
2023/04/03 02:36:43;;;;;;;18.65;17.25;;;3.00;1.00;;;;;;4974175;28;20034;-83
2023/04/03 02:39:08;;;;;;;17.02;15.73;;;3.10;1.00;;;;;;4959391;28;20149;-83
2023/04/03 02:41:37;;;;;;;19.48;17.88;;;3.30;1.00;;;;;;4959615;28;20057;-82
2023/04/03 02:44:04;;;;;;;11.82;10.63;;;2.60;1.00;;;;;;4959225;28;20486;-82
2023/04/03 02:46:30;;;;;;;14.50;13.27;;;2.60;1.00;;;;;;4962525;28;20397;-83
2023/04/03 02:48:56;;;;;;;31.15;28.80;;;3.20;1.00;;;;;;4995067;28;20517;-83
2023/04/03 02:51:22;;;;;;;14.75;13.70;;;3.00;1.00;;;;;;4986509;28;20082;-83
2023/04/03 02:53:48;;;;;;;12.40;11.35;;;2.90;1.00;;;;;;4984219;28;20124;-83
2023/04/03 02:56:14;;;;;;;12.93;11.82;;;2.80;1.00;;;;;;4975074;28;20046;-83
2023/04/03 02:58:40;;;;;;;14.15;13.05;;;2.30;1.00;;;;;;4958915;28;20042;-82
2023/04/03 03:01:06;;;;;;;19.05;17.58;;;2.30;1.00;;;;;;4978959;28;20092;-82
2023/04/03 03:03:31;;;;;;;13.57;12.52;;;2.30;1.00;;;;;;4994727;28;20038;-82
2023/04/03 03:06:12;;;;;;;17.08;15.63;;;2.90;1.00;;;;;;4993223;28;20367;-83
2023/04/03 03:08:38;;;;;;;16.63;15.13;;;2.70;1.00;;;;;;4975285;28;20588;-82
2023/04/03 03:11:04;;;;;;;26.35;24.20;;;2.30;1.00;;;;;;4974701;28;20121;-82
2023/04/03 03:13:30;;;;;;;20.95;19.15;;;2.80;1.00;;;;;;4974818;28;20121;-82
2023/04/03 03:15:56;;;;;;;22.15;20.23;;;2.70;38.60;;;;;;4958717;28;20194;-82
2023/04/03 03:18:22;;;;;;;19.48;17.73;;;2.40;80.40;;;;;;4963155;28;20117;-83
2023/04/03 03:20:55;;;;;;;34.25;31.17;;;2.90;99.90;;;;;;4957792;28;20104;-82
2023/04/03 03:23:23;;;;;;;39.10;36.28;;;2.40;99.90;;;;;;4958630;28;20490;-82
2023/04/03 03:25:48;;;;;;;22.08;20.30;;;2.80;99.90;;;;;;4958448;28;20494;-82
2023/04/03 03:28:14;;;;;;;31.77;28.98;;;2.20;99.90;;;;;;4974897;28;20093;-82
2023/04/03 03:30:40;;;;;;;16.63;15.25;;;2.50;99.90;;;;;;4977172;28;20092;-83
2023/04/03 03:33:06;;;;;;;27.20;24.98;;;2.20;99.90;;;;;;4977808;28;20449;-82
2023/04/03 03:35:32;;;;;;;20.80;19.13;;;2.20;99.90;;;;;;4975995;28;20081;-83
2023/04/03 03:37:57;;;;;;;18.63;16.92;;;2.10;99.90;;;;;;4989242;28;20053;-83
2023/04/03 03:40:23;;;;;;;20.13;18.27;;;2.70;99.90;;;;;;4993810;28;20465;-83
2023/04/03 03:42:48;;;;;;;22.55;20.80;;;2.80;99.90;;;;;;4991845;28;20166;-83
2023/04/03 03:45:14;;;;;;;22.25;20.63;;;2.30;99.90;;;;;;4977809;28;20038;-82
2023/04/03 03:47:40;;;;;;;20.92;18.85;;;2.10;99.90;;;;;;4982333;28;20034;-82
2023/04/03 03:50:06;;;;;;;13.30;11.98;;;2.10;99.90;;;;;;4960512;28;20055;-83
2023/04/03 03:52:32;;;;;;;31.23;28.58;;;2.70;99.90;;;;;;4962304;28;20038;-83
2023/04/03 03:54:57;;;;;;;18.08;16.60;;;2.00;99.90;;;;;;4959915;28;20089;-82
2023/04/03 03:57:23;;;;;;;17.17;15.82;;;2.40;99.90;;;;;;4983657;28;20034;-83
2023/04/03 03:59:50;;;;;;;19.20;17.83;;;2.10;99.90;;;;;;4957965;28;20049;-83
2023/04/03 04:02:16;;;;;;;23.15;21.10;;;2.80;99.90;;;;;;4973843;28;20085;-83
2023/04/03 04:04:41;;;;;;;19.23;17.30;;;2.80;99.90;;;;;;4975639;28;20046;-82
2023/04/03 04:07:07;;;;;;;28.70;25.73;;;2.30;99.90;;;;;;4972512;28;20030;-83
2023/04/03 04:09:32;;;;;;;21.60;19.90;;;2.20;99.90;;;;;;4958107;28;20089;-82
2023/04/03 04:11:58;;;;;;;16.50;15.30;;;2.60;99.90;;;;;;4981337;28;20081;-83
2023/04/03 04:14:24;;;;;;;17.23;15.63;;;2.30;99.90;;;;;;4983666;28;20042;-82
2023/04/03 04:16:49;;;;;;;18.98;17.50;;;2.20;99.90;;;;;;4973892;28;20108;-83
2023/04/03 04:19:15;;;;;;;15.50;14.07;;;2.20;99.90;;;;;;4983812;28;20421;-83
2023/04/03 04:21:41;;;;;;;16.40;14.85;;;2.10;99.90;;;;;;4968118;28;20069;-82
2023/04/03 04:24:07;;;;;;;27.50;24.70;;;2.20;99.90;;;;;;4979093;28;20073;-83
2023/04/03 04:26:33;;;;;;;13.68;12.43;;;2.80;99.90;;;;;;4975357;28;20505;-83
2023/04/03 04:28:59;;;;;;;15.77;14.48;;;2.80;99.90;;;;;;4993246;28;20050;-83
2023/04/03 04:31:24;;;;;;;18.92;16.98;;;2.60;99.90;;;;;;4979804;28;20042;-83
2023/04/03 04:33:50;;;;;;;19.70;18.13;;;2.50;99.90;;;;;;4975962;28;20103;-82
2023/04/03 04:36:16;;;;;;;19.00;17.40;;;2.80;99.90;;;;;;4989930;28;20045;-83
2023/04/03 04:38:41;;;;;;;18.83;16.98;;;2.80;99.90;;;;;;4976550;28;20049;-83
2023/04/03 04:41:08;;;;;;;16.27;14.63;;;2.30;99.90;;;;;;4992631;28;20044;-83
2023/04/03 04:43:33;;;;;;;16.63;14.95;;;2.00;99.90;;;;;;4976544;28;20042;-82
2023/04/03 04:46:06;;;;;;;26.58;24.60;;;2.40;99.90;;;;;;4993035;28;20037;-83
2023/04/03 04:48:32;;;;;;;31.45;28.75;;;2.10;99.90;;;;;;4992994;28;20055;-83
2023/04/03 04:50:58;;;;;;;18.27;13.63;;;2.40;99.90;;;;;;4975523;28;20038;-83
2023/04/03 04:53:23;;;;;;;13.80;12.48;;;2.00;99.90;;;;;;4992028;28;20121;-83
2023/04/03 04:55:49;;;;;;;14.85;13.43;;;1.90;99.90;;;;;;4973532;28;20084;-83
2023/04/03 04:58:15;;;;;;;15.10;13.85;;;2.10;99.90;;;;;;4973229;28;20554;-82
2023/04/03 05:00:40;;;;;;;18.10;16.50;;;1.90;99.90;;;;;;4957773;28;20057;-83
2023/04/03 05:03:06;;;;;;;16.58;14.82;;;2.00;99.90;;;;;;4973289;28;20065;-83
2023/04/03 05:05:31;;;;;;;14.40;12.98;;;2.20;99.90;;;;;;4984330;28;20034;-83
2023/04/03 05:07:57;;;;;;;15.15;12.82;;;2.60;99.90;;;;;;4993286;28;20490;-83
2023/04/03 05:10:23;;;;;;;19.77;18.00;;;2.00;99.90;;;;;;4992715;28;20034;-83
2023/04/03 05:12:48;;;;;;;16.23;14.90;;;2.10;99.90;;;;;;4960678;28;20111;-82
2023/04/03 05:15:14;;;;;;;16.75;15.23;;;2.10;99.90;;;;;;4993011;28;20781;-83
2023/04/03 05:17:39;;;;;;;14.85;13.55;;;1.60;99.90;;;;;;4992504;28;20081;-82
2023/04/03 05:20:06;;;;;;;18.08;12.38;;;2.10;99.90;;;;;;4979477;28;20046;-83
2023/04/03 05:22:31;;;;;;;24.40;22.15;;;1.50;99.90;;;;;;4977955;28;20042;-83
2023/04/03 05:24:57;;;;;;;17.45;15.65;;;2.30;99.90;;;;;;4976554;28;20033;-83
2023/04/03 05:27:24;;;;;;;24.55;22.50;;;1.60;99.90;;;;;;4974844;28;20034;-83
2023/04/03 05:29:50;;;;;;;24.98;22.83;;;2.40;99.90;;;;;;4992437;28;20137;-82
2023/04/03 05:32:16;;;;;;;16.83;15.27;;;1.70;99.90;;;;;;4991703;28;20042;-83
2023/04/03 05:34:44;;;;;;;16.42;14.88;;;2.40;99.90;;;;;;4984740;28;20049;-82
2023/04/03 05:37:10;;;;;;;18.52;17.05;;;1.90;99.90;;;;;;4991088;28;20053;-83
2023/04/03 05:39:36;;;;;;;17.63;16.13;;;1.10;99.90;;;;;;4970018;28;20129;-83
2023/04/03 05:42:01;;;;;;;14.98;13.48;;;2.60;99.90;;;;;;4973335;28;20038;-82
2023/04/03 05:44:27;;;;;;;26.27;22.50;;;2.30;99.90;;;;;;4957935;28;20105;-83
2023/04/03 05:46:52;;;;;;;20.20;18.45;;;1.90;99.90;;;;;;4960855;28;20121;-83
2023/04/03 05:49:18;;;;;;;26.98;24.95;;;2.40;99.90;;;;;;4968892;28;20053;-82
2023/04/03 05:51:44;;;;;;;21.45;19.50;;;2.20;99.90;;;;;;4987713;28;20042;-83
2023/04/03 05:54:20;;;;;;;12.27;11.25;;;2.00;99.90;;;;;;4991151;28;20049;-82
2023/04/03 05:56:45;;;;;;;23.83;21.52;;;2.80;99.90;;;;;;4992164;28;20045;-83
2023/04/03 05:59:11;;;;;;;14.85;13.70;;;2.00;99.90;;;;;;4992745;28;20038;-83
2023/04/03 06:01:37;;;;;;;15.95;13.15;;;2.10;99.90;;;;;;4988491;28;20062;-82
2023/04/03 06:04:03;;;;;;;23.00;20.40;;;2.00;99.90;;;;;;4987770;28;20104;-83
2023/04/03 06:06:44;;;;;;;16.85;15.35;;;2.30;99.90;;;;;;4993541;28;20430;-83
2023/04/03 06:09:10;;;;;;;25.52;22.83;;;2.50;99.90;;;;;;4998158;28;20053;-83
2023/04/03 06:11:35;;;;;;;22.02;20.38;;;2.80;99.90;;;;;;4990750;28;20042;-83
2023/04/03 06:14:01;;;;;;;14.23;12.93;;;2.60;99.90;;;;;;4982601;28;20034;-83
2023/04/03 06:16:27;;;;;;;22.45;20.63;;;2.90;99.90;;;;;;4981259;28;20038;-83
2023/04/03 06:18:55;;;;;;;15.55;14.15;;;2.50;99.90;;;;;;4981582;28;20414;-83
2023/04/03 06:21:21;;;;;;;24.42;20.52;;;2.80;99.90;;;;;;4990960;28;20042;-82
2023/04/03 06:23:47;;;;;;;16.30;14.88;;;2.70;99.90;;;;;;4974496;28;20042;-82
2023/04/03 06:26:12;;;;;;;18.55;16.90;;;2.90;99.90;;;;;;4973786;28;20045;-82
2023/04/03 06:28:38;;;;;;;15.77;14.30;;;2.40;99.90;;;;;;4987504;28;20100;-82
2023/04/03 06:31:03;;;;;;;28.38;25.92;;;3.20;99.90;;;;;;4972642;28;20133;-82
2023/04/03 06:33:29;;;;;;;20.02;18.02;;;3.20;99.90;;;;;;4961180;28;20365;-82
2023/04/03 06:35:58;;;;;;;30.17;27.10;;;2.80;99.90;;;;;;4978479;28;20497;-82
2023/04/03 06:38:24;;;;;;;21.90;19.65;;;2.80;99.90;;;;;;4969185;28;20089;-81
2023/04/03 06:40:51;;;;;;;20.50;18.77;;;2.80;99.90;;;;;;4978202;28;20556;-82
2023/04/03 06:43:17;;;;;;;20.33;18.40;;;3.40;99.90;;;;;;4986530;28;20051;-82
2023/04/03 06:45:42;;;;;;;23.10;21.13;;;2.70;99.90;;;;;;4982496;28;20042;-82
2023/04/03 06:48:08;;;;;;;31.60;28.85;;;2.90;99.90;;;;;;4974750;28;20405;-81
2023/04/03 06:50:33;;;;;;;29.80;27.38;;;3.00;99.90;;;;;;4980840;28;20442;-82
2023/04/03 06:53:00;;;;;;;22.58;20.92;;;2.90;99.90;;;;;;4974087;28;20052;-82
2023/04/03 06:55:26;;;;;;;26.38;24.25;;;3.80;99.90;;;;;;4984994;28;20103;-82
2023/04/03 06:57:52;;;;;;;33.30;30.73;;;3.40;99.90;;;;;;4987360;28;20421;-82
2023/04/03 07:00:18;;;;;;;42.13;38.92;;;3.50;99.90;;;;;;4989975;28;20050;-81
2023/04/03 07:02:44;;;;;;;28.40;26.17;;;3.70;99.90;;;;;;4973797;28;20395;-82
2023/04/03 07:05:10;;;;;;;28.80;26.67;;;3.60;99.90;;;;;;4972887;28;20049;-82
2023/04/03 07:07:35;;;;;;;31.30;28.80;;;3.90;99.90;;;;;;4971598;28;20074;-82
2023/04/03 07:10:01;;;;;;;43.30;40.15;;;3.70;99.90;;;;;;4987796;28;20520;-82
2023/04/03 07:12:27;;;;;;;22.58;20.77;;;4.00;99.90;;;;;;4990613;28;20425;-82
2023/04/03 07:14:53;;;;;;;37.92;35.03;;;4.10;99.90;;;;;;4966291;28;20042;-82
2023/04/03 07:17:18;;;;;;;48.50;44.55;;;4.00;99.90;;;;;;4966334;28;20061;-81
2023/04/03 07:19:44;;;;;;;21.65;19.67;;;4.30;99.90;;;;;;4971415;28;20123;-82
2023/04/03 07:22:11;;;;;;;42.67;39.40;;;4.40;99.90;;;;;;4958788;28;20046;-82
2023/04/03 07:24:36;;;;;;;49.13;44.92;;;4.40;99.90;;;;;;4963354;28;20042;-82
2023/04/03 07:27:03;;;;;;;41.03;37.65;;;5.90;99.90;;;;;;4979460;28;20038;-82
2023/04/03 07:29:29;;;;;;;43.80;40.38;;;4.40;99.90;;;;;;4987244;28;20499;-82
2023/04/03 07:31:55;;;;;;;26.17;23.98;;;4.10;1.00;;;;;;4975672;28;20076;-83
2023/04/03 07:34:21;;;;;;;32.20;29.73;;;4.30;1.00;;;;;;4967400;28;20077;-82
2023/04/03 07:36:47;;;;;;;36.58;33.53;;;4.50;1.00;;;;;;4969873;28;20049;-83
2023/04/03 07:39:12;;;;;;;39.90;36.95;;;4.70;99.90;;;;;;4988449;28;20050;-83
2023/04/03 07:41:38;;;;;;;33.10;30.08;;;5.00;1.00;;;;;;4964503;28;20042;-83
2023/04/03 07:44:05;;;;;;;33.72;30.95;;;5.10;99.90;;;;;;4997516;28;20042;-83
2023/04/03 07:46:31;;;;;;;31.40;28.88;;;5.30;99.90;;;;;;4980995;28;20042;-82
2023/04/03 07:48:56;;;;;;;45.10;41.70;;;4.70;1.00;;;;;;4991490;28;20056;-83
2023/04/03 07:51:23;;;;;;;38.38;35.45;;;5.10;99.90;;;;;;4983652;28;20184;-82
2023/04/03 07:53:49;;;;;;;39.60;36.63;;;4.90;1.00;;;;;;4979622;28;20046;-84
2023/04/03 07:56:16;;;;;;;28.55;25.77;;;5.40;99.90;;;;;;4987759;28;20044;-82
2023/04/03 07:58:42;;;;;;;25.02;22.63;;;5.30;73.20;;;;;;4984754;28;20038;-82
2023/04/03 08:01:08;;;;;;;13.38;11.98;;;5.80;1.00;;;;;;4982198;28;20464;-82
2023/04/03 08:03:33;;;;;;;17.48;15.98;;;6.40;1.00;;;;;;4986940;28;20057;-82
2023/04/03 08:06:07;;;;;;;18.92;16.80;;;6.70;1.00;;;;;;4975307;28;20038;-82
2023/04/03 08:08:33;;;;;;;19.55;17.60;;;7.30;99.90;;;;;;4983446;28;20107;-82
2023/04/03 08:11:00;;;;;;;11.68;10.07;;;7.50;1.00;;;;;;4967338;28;20164;-82
2023/04/03 08:13:26;;;;;;;18.77;17.02;;;7.50;81.30;;;;;;4987529;28;20038;-82
2023/04/03 08:15:52;;;;;;;18.27;16.40;;;7.40;99.90;;;;;;4992443;28;20376;-82
2023/04/03 08:18:18;;;;;;;22.65;20.55;;;7.50;49.20;;;;;;4967874;28;20034;-82
2023/04/03 08:20:44;;;;;;;18.00;16.15;;;7.50;1.00;;;;;;4974698;28;20501;-82
2023/04/03 08:23:10;;;;;;;14.85;13.70;;;7.90;99.90;;;;;;4991454;28;20045;-82
2023/04/03 08:25:40;;;;;;;16.35;14.68;;;9.70;99.90;;;;;;4990893;28;20382;-83
2023/04/03 08:28:07;;;;;;;9.18;7.80;;;8.60;43.20;;;;;;4994026;28;20505;-83
2023/04/03 08:30:33;;;;;;;12.82;11.63;;;8.70;1.00;;;;;;4974859;28;20461;-83
2023/04/03 08:33:01;;;;;;;12.65;8.80;;;8.60;99.90;;;;;;4970185;28;20679;-83
2023/04/03 08:35:27;;;;;;;16.77;12.98;;;9.90;99.90;;;;;;4984121;28;20041;-83
2023/04/03 08:37:53;;;;;;;7.38;5.60;;;8.60;99.90;;;;;;4989207;28;20414;-83
2023/04/03 08:40:19;;;;;;;11.55;10.35;;;8.90;95.40;;;;;;4971178;28;20042;-82
2023/04/03 08:43:04;;;;;;;10.93;9.82;;;9.00;1.00;;;;;;4968097;28;20077;-82
2023/04/03 08:46:05;;;;;;;8.05;7.10;;;9.60;1.00;;;;;;4966513;28;20130;-82
2023/04/03 08:48:39;;;;;;;9.05;8.13;;;8.90;99.90;;;;;;4918669;28;20406;-82
2023/04/03 08:51:15;;;;;;;7.40;5.60;;;8.90;99.90;;;;;;4966782;28;20056;-82
2023/04/03 08:53:43;;;;;;;;;;;9.40;99.90;;;;;;4966759;28;20038;-83
2023/04/03 08:56:12;;;;;;;6.32;5.30;;;9.60;99.90;;;;;;4965575;28;20374;-82
2023/04/03 08:58:55;;;;;;;6.80;5.13;;;9.80;99.90;;;;;;4959468;28;20093;-82
2023/04/03 09:01:41;;;;;;;5.28;4.30;;;9.70;99.90;;;;;;4986510;28;20046;-83
2023/04/03 09:04:13;;;;;;;8.75;6.28;;;9.70;99.90;;;;;;4987126;28;20042;-83
2023/04/03 09:06:42;;;;;;;6.50;5.70;;;9.70;99.50;;;;;;4988069;28;20553;-83
2023/04/03 09:09:32;;;;;;;5.45;4.60;;;9.80;91.40;;;;;;4973781;28;20052;-83
2023/04/03 09:12:14;;;;;;;5.82;4.97;;;9.90;62.40;;;;;;4986797;28;20405;-83
2023/04/03 09:14:52;;;;;;;6.28;5.30;;;10.30;56.70;;;;;;4979077;28;20054;-83
2023/04/03 09:17:40;;;;;;;7.65;5.00;;;10.90;31.60;;;;;;4986108;28;20034;-83
2023/04/03 09:20:19;;;;;;;5.90;3.63;;;10.80;15.20;;;;;;4988416;28;20510;-82
2023/04/03 09:22:45;;;;;;;7.05;5.65;;;10.70;2.40;;;;;;4991426;28;20056;-82
2023/04/03 09:25:38;;;;;;;9.95;4.00;;;10.50;1.00;;;;;;4984836;28;20041;-83
2023/04/03 09:28:09;;;;;;;6.10;3.35;;;10.10;1.00;;;;;;4992043;28;20502;-83
2023/04/03 09:30:35;;;;;;;5.13;3.95;;;9.90;1.00;;;;;;4973520;28;20129;-82
2023/04/03 09:33:01;;;;;;;6.85;5.18;;;10.20;1.00;;;;;;4979698;28;20497;-83
2023/04/03 09:35:32;;;;;;;4.55;4.10;;;10.40;1.00;;;;;;4989637;28;20037;-83
2023/04/03 09:38:10;;;;;;;4.78;4.38;;;10.50;1.00;;;;;;4986361;28;20058;-83
2023/04/03 09:40:39;;;;;;;6.65;4.93;;;11.00;1.00;;;;;;4987522;28;20050;-83
2023/04/03 09:43:17;;;;;;;4.90;3.03;;;11.20;1.00;;;;;;4971918;28;20117;-83
2023/04/03 09:45:44;;;;;;;4.72;4.03;;;11.30;1.00;;;;;;4981765;28;20100;-83
2023/04/03 09:48:13;;;;;;;4.55;3.95;;;10.80;1.00;;;;;;4970228;28;20596;-83
2023/04/03 09:50:56;;;;;;;7.18;5.00;;;10.50;1.00;;;;;;4988797;28;20053;-82
2023/04/03 09:53:41;;;;;;;5.88;4.07;;;11.00;1.00;;;;;;4977705;28;20052;-82
2023/04/03 09:56:13;;;;;;;6.80;6.18;;;10.60;1.00;;;;;;4961821;28;20053;-82
2023/04/03 09:58:41;;;;;;;7.00;6.43;;;10.80;1.00;;;;;;4965713;28;20054;-83
2023/04/03 10:01:26;;;;;;;4.32;3.97;;;11.00;1.00;;;;;;4973957;28;20092;-82
2023/04/03 10:04:11;;;;;;;6.13;5.63;;;11.10;1.00;;;;;;4968702;28;20129;-82
2023/04/03 10:06:50;;;;;;;5.97;5.30;;;10.90;1.00;;;;;;4971613;28;20042;-82
2023/04/03 10:09:31;;;;;;;7.05;6.40;;;10.90;1.00;;;;;;4965880;28;20038;-82
2023/04/03 10:12:00;;;;;;;8.73;7.18;;;10.60;1.00;;;;;;4986476;28;20035;-82
2023/04/03 10:14:27;;;;;;;5.90;5.32;;;10.30;1.00;;;;;;4969481;28;20054;-82
2023/04/03 10:17:24;;;;;;;6.88;6.05;;;10.50;1.00;;;;;;4985136;28;20042;-81
2023/04/03 10:19:49;;;;;;;;;;;10.40;1.00;;;;;;4967490;28;20386;-82
2023/04/03 10:22:54;;;;;;;8.37;7.70;;;10.80;1.00;;;;;;4990654;28;20416;-81
2023/04/03 10:25:47;;;;;;;10.75;9.57;;;10.20;1.00;;;;;;4985807;28;20046;-89
2023/04/03 10:28:27;;;;;;;12.30;11.27;;;10.10;1.00;;;;;;4976054;28;20068;-91
2023/04/03 10:31:11;;;;;;;8.73;7.95;;;10.30;1.00;;;;;;4987435;28;20077;-89
2023/04/03 10:34:00;;;;;;;8.77;6.65;;;10.30;1.00;;;;;;4993064;28;20068;-89
2023/04/03 10:36:54;;;;;;;6.70;3.83;;;10.40;1.00;;;;;;4960431;28;20115;-89
2023/04/03 10:39:55;;;;;;;7.25;6.55;;;10.40;1.00;;;;;;4988909;28;20077;-89
2023/04/03 10:42:37;;;;;;;15.80;10.50;;;10.40;1.00;;;;;;4980410;28;20056;-89
2023/04/03 10:45:24;;;;;;;9.00;8.13;;;10.40;1.00;;;;;;4987107;28;20482;-90
2023/04/03 10:48:16;;;;;;;7.13;6.53;;;10.20;1.00;;;;;;4989106;28;20532;-89
2023/04/03 10:50:58;;;;;;;8.35;7.28;;;10.00;1.00;;;;;;4966241;28;20050;-90
2023/04/03 10:53:49;;;;;;;11.95;10.32;;;9.90;1.00;;;;;;4966490;28;20045;-89
2023/04/03 10:56:24;;;;;;;10.65;9.75;;;10.10;1.00;;;;;;4985567;28;20097;-90
2023/04/03 10:58:57;;;;;;;9.90;9.00;;;10.40;1.00;;;;;;4985311;28;20046;-91
2023/04/03 11:01:38;;;;;;;8.65;7.93;;;11.50;1.00;;;;;;4977187;28;20046;-91
2023/04/03 11:04:05;;;;;;;5.78;5.28;;;10.70;1.00;;;;;;4986719;28;20389;-88
2023/04/03 11:06:56;;;;;;;8.30;7.63;;;10.80;1.00;;;;;;4969002;28;20460;-90
2023/04/03 11:09:29;;;;;;;9.52;7.93;;;10.30;1.00;;;;;;4986741;28;20030;-90
2023/04/03 11:12:20;;;;;;;8.70;7.95;;;10.40;1.00;;;;;;4980217;28;20128;-89
2023/04/03 11:14:49;;;;;;;8.40;7.72;;;10.60;1.00;;;;;;4985966;28;20128;-89
2023/04/03 11:17:18;;;;;;;4.68;4.22;;;10.90;1.00;;;;;;4991185;28;20080;-89
2023/04/03 11:20:01;;;;;;;8.15;7.53;;;10.80;1.00;;;;;;4976540;28;20050;-89
2023/04/03 11:22:34;;;;;;;7.45;6.85;;;10.70;1.00;;;;;;4986568;28;20045;-90
2023/04/03 11:25:06;;;;;;;9.90;9.18;;;10.60;1.00;;;;;;4975575;28;20042;-90
2023/04/03 11:27:47;;;;;;;10.93;10.02;;;10.50;1.00;;;;;;4976133;28;20042;-89
2023/04/03 11:30:21;;;;;;;6.93;6.10;;;10.20;1.00;;;;;;4984484;28;20492;-92
2023/04/03 11:33:21;;;;;;;7.47;4.20;;;10.10;1.00;;;;;;4968802;28;20069;-91
2023/04/03 11:35:55;;;;;;;8.15;7.43;;;10.20;1.00;;;;;;4982608;28;20148;-90
2023/04/03 11:38:25;;;;;;;10.95;9.30;;;10.40;1.00;;;;;;4988144;28;20077;-91
2023/04/03 11:40:53;;;;;;;5.88;5.30;;;10.30;1.00;;;;;;4992340;28;20129;-89
2023/04/03 11:43:29;;;;;;;11.25;10.25;;;10.30;1.00;;;;;;4988182;28;20038;-88
2023/04/03 11:45:55;;;;;;;13.65;12.45;;;10.30;1.00;;;;;;4973051;28;20111;-91
2023/04/03 11:48:27;;;;;;;7.60;6.90;;;10.40;1.00;;;;;;4987020;28;20038;-90
2023/04/03 11:50:52;;;;;;;10.32;9.55;;;10.20;1.00;;;;;;4989424;28;20152;-90
2023/04/03 11:53:29;;;;;;;15.38;14.27;;;10.20;1.00;;;;;;4992595;28;20469;-90
2023/04/03 11:56:27;;;;;;;6.38;5.63;;;10.10;1.00;;;;;;4970668;28;20034;-89
2023/04/03 11:59:14;;;;;;;10.18;9.25;;;10.00;1.00;;;;;;4979347;28;20038;-90
2023/04/03 12:01:54;;;;;;;5.80;5.35;;;10.10;1.00;;;;;;4979702;28;20396;-91
2023/04/03 12:04:22;;;;;;;6.18;5.53;;;9.80;99.90;;;;;;4991188;28;20409;-89
2023/04/03 12:06:50;;;;;;;7.00;6.40;;;11.30;1.00;;;;;;4986015;28;20061;-88
2023/04/03 12:09:32;;;;;;;5.20;4.30;;;10.00;1.00;;;;;;4974498;28;20213;-91
2023/04/03 12:12:01;;;;;;;8.88;7.97;;;10.30;1.00;;;;;;4966586;28;20128;-90
2023/04/03 12:14:28;;;;;;;9.05;8.15;;;10.40;1.00;;;;;;4974725;28;20054;-89
2023/04/03 12:16:57;;;;;;;4.75;3.63;;;10.40;99.90;;;;;;4976118;28;20523;-88
2023/04/03 12:19:36;;;;;;;5.18;4.70;;;10.30;99.90;;;;;;4992700;28;20077;-90
2023/04/03 12:22:02;;;;;;;8.25;7.55;;;10.30;99.90;;;;;;4986321;28;20034;-89
2023/04/03 12:24:30;;;;;;;4.53;4.05;;;10.20;99.90;;;;;;4985123;28;20045;-88
2023/04/03 12:27:23;;;;;;;6.97;6.35;;;10.20;99.90;;;;;;4969160;28;20073;-88
2023/04/03 12:30:05;;;;;;;11.18;10.18;;;9.90;99.90;;;;;;4975655;28;20042;-89
2023/04/03 12:32:36;;;;;;;8.50;7.85;;;9.70;99.90;;;;;;4973806;28;20076;-88
2023/04/03 12:35:22;;;;;;;9.88;9.10;;;9.80;99.90;;;;;;4974542;28;20050;-89
2023/04/03 12:37:58;;;;;;;5.85;5.45;;;9.90;99.90;;;;;;4987702;28;20196;-89
2023/04/03 12:40:41;;;;;;;8.30;7.50;;;10.20;99.90;;;;;;4978337;28;20041;-87
2023/04/03 12:43:14;;;;;;;7.10;6.40;;;10.20;99.90;;;;;;4981074;28;20046;-88
2023/04/03 12:45:46;;;;;;;8.75;7.95;;;10.60;99.90;;;;;;4987848;28;20042;-89
2023/04/03 12:48:25;;;;;;;11.23;9.85;;;10.30;99.90;;;;;;4987443;28;20060;-91
2023/04/03 12:50:51;;;;;;;8.30;7.50;;;10.30;99.90;;;;;;4961485;28;20393;-90
2023/04/03 12:53:27;;;;;;;7.82;6.22;;;10.20;99.90;;;;;;4988411;28;20418;-85
2023/04/03 12:56:23;;;;;;;10.60;9.60;;;10.20;99.90;;;;;;4967965;28;20038;-87
2023/04/03 12:58:51;;;;;;;8.50;5.60;;;10.00;99.90;;;;;;4982788;28;20084;-84